Time;durP1;ratioP1;P1;durP2;ratioP2;P2;SDS_P1;SDS_P2;PMS_P1;PMS_P2;Temp;Humidity;BMP_temperature;BMP_pressure;BME280_temperature;BME280_humidity;BME280_pressure;Samples;Min_cycle;Max_cycle;Signal;HPM_P1;HPM_P2
2023/06/02 00:00:48;;;;;;;12.40;4.87;;;11.00;99.90;;;;;;4991449;28;23495;-64
2023/06/02 00:03:17;;;;;;;9.50;4.10;;;11.00;99.90;;;;;;4991874;28;20496;-64
2023/06/02 00:05:46;;;;;;;10.40;4.97;;;11.00;99.90;;;;;;4991976;28;21032;-64
2023/06/02 00:08:17;;;;;;;12.80;4.70;;;11.00;99.90;;;;;;4993270;28;20484;-64
2023/06/02 00:10:46;;;;;;;15.57;5.00;;;11.00;99.90;;;;;;4991039;28;20480;-64
2023/06/02 00:13:14;;;;;;;9.70;4.60;;;11.00;99.90;;;;;;4991008;28;20846;-64
2023/06/02 00:15:43;;;;;;;8.93;4.30;;;11.00;99.90;;;;;;4991579;28;20732;-64
2023/06/02 00:18:12;;;;;;;15.40;4.63;;;11.00;99.90;;;;;;5000318;28;20801;-64
2023/06/02 00:20:41;;;;;;;16.27;4.40;;;11.10;99.90;;;;;;4994604;28;20559;-63
2023/06/02 00:23:09;;;;;;;12.00;4.33;;;11.10;99.90;;;;;;4988609;28;20496;-64
2023/06/02 00:25:37;;;;;;;14.13;4.40;;;11.10;99.90;;;;;;4995205;28;20494;-62
2023/06/02 00:28:06;;;;;;;16.73;4.97;;;11.10;99.90;;;;;;4990565;28;20485;-64
2023/06/02 00:30:35;;;;;;;10.67;4.83;;;11.00;99.90;;;;;;4989242;28;21012;-64
2023/06/02 00:33:03;;;;;;;12.70;4.90;;;11.00;99.90;;;;;;4988693;28;23510;-64
2023/06/02 00:35:33;;;;;;;13.43;4.43;;;11.00;99.90;;;;;;4992250;28;20558;-66
2023/06/02 00:38:04;;;;;;;11.60;4.30;;;11.00;99.90;;;;;;4990787;28;20469;-64
2023/06/02 00:40:32;;;;;;;11.87;4.47;;;11.00;99.90;;;;;;4991829;28;20477;-63
2023/06/02 00:43:01;;;;;;;15.77;6.20;;;11.00;99.90;;;;;;4990503;28;20484;-62
2023/06/02 00:45:32;;;;;;;9.40;5.07;;;11.00;99.90;;;;;;4989183;28;20570;-64
2023/06/02 00:48:01;;;;;;;12.97;4.87;;;11.00;99.90;;;;;;4990654;28;20594;-64
2023/06/02 00:50:30;;;;;;;8.50;4.40;;;11.00;99.90;;;;;;4991034;28;20469;-64
2023/06/02 00:53:00;;;;;;;10.73;4.77;;;11.00;99.90;;;;;;4991182;28;20496;-64
2023/06/02 00:55:30;;;;;;;11.30;3.90;;;11.10;99.90;;;;;;4992000;28;20504;-64
2023/06/02 00:57:59;;;;;;;13.23;4.83;;;11.10;99.90;;;;;;4990967;28;20475;-63
2023/06/02 01:00:33;;;;;;;16.83;4.73;;;11.10;99.90;;;;;;4988248;28;20604;-63
2023/06/02 01:03:02;;;;;;;8.93;4.00;;;11.00;99.90;;;;;;4991358;28;21185;-63
2023/06/02 01:05:31;;;;;;;13.00;4.87;;;11.00;99.90;;;;;;4986445;28;21033;-63
2023/06/02 01:08:03;;;;;;;8.80;4.63;;;11.00;99.90;;;;;;4989494;28;20477;-63
2023/06/02 01:10:32;;;;;;;14.23;5.13;;;11.00;99.90;;;;;;4986268;28;20555;-64
2023/06/02 01:13:00;;;;;;;11.23;4.20;;;10.90;99.90;;;;;;4985681;28;20476;-63
2023/06/02 01:15:28;;;;;;;10.63;4.10;;;10.90;99.90;;;;;;4990206;28;20859;-64
2023/06/02 01:17:59;;;;;;;17.93;5.20;;;10.90;99.90;;;;;;4992505;28;20500;-63
2023/06/02 01:20:28;;;;;;;11.50;4.67;;;10.90;99.90;;;;;;4986459;28;20899;-63
2023/06/02 01:23:04;;;;;;;14.70;4.23;;;10.90;99.90;;;;;;4985129;28;20600;-63
2023/06/02 01:25:36;;;;;;;12.67;4.43;;;10.80;99.90;;;;;;4992057;28;20954;-63
2023/06/02 01:28:06;;;;;;;14.30;5.20;;;10.90;99.90;;;;;;4989268;28;20976;-64
2023/06/02 01:30:35;;;;;;;18.37;4.93;;;10.80;99.90;;;;;;4993194;28;20484;-64
2023/06/02 01:33:08;;;;;;;14.13;4.67;;;10.80;99.90;;;;;;4993115;28;20570;-64
2023/06/02 01:35:43;;;;;;;10.97;4.90;;;10.80;99.90;;;;;;5004438;28;20471;-64
2023/06/02 01:38:13;;;;;;;9.33;4.90;;;10.80;99.90;;;;;;4998883;28;20476;-63
2023/06/02 01:40:43;;;;;;;15.37;4.97;;;10.80;99.90;;;;;;4991987;28;20504;-64
2023/06/02 01:43:12;;;;;;;21.50;5.47;;;10.80;99.90;;;;;;4991058;28;20635;-62
2023/06/02 01:45:42;;;;;;;13.63;4.40;;;10.80;99.90;;;;;;4984574;28;20582;-64
2023/06/02 01:48:11;;;;;;;13.97;4.80;;;10.70;99.90;;;;;;4987688;28;20574;-64
2023/06/02 01:50:40;;;;;;;10.87;4.20;;;10.70;99.90;;;;;;4991092;28;20476;-64
2023/06/02 01:53:08;;;;;;;13.50;6.00;;;10.70;99.90;;;;;;4994307;28;21375;-63
2023/06/02 01:55:36;;;;;;;11.53;4.80;;;10.70;99.90;;;;;;4992157;28;20560;-64
2023/06/02 01:58:06;;;;;;;9.93;5.40;;;10.70;99.90;;;;;;4987114;28;21034;-63
2023/06/02 02:00:35;;;;;;;13.53;4.87;;;10.60;99.90;;;;;;4987929;28;20559;-63
2023/06/02 02:03:04;;;;;;;12.67;5.60;;;10.60;99.90;;;;;;4990742;28;20501;-64
2023/06/02 02:05:33;;;;;;;16.87;6.47;;;10.50;99.90;;;;;;4987962;28;20469;-62
2023/06/02 02:08:01;;;;;;;13.40;5.80;;;10.50;99.90;;;;;;4990087;28;20564;-64
2023/06/02 02:10:29;;;;;;;11.97;4.83;;;10.50;99.90;;;;;;4991820;28;20551;-64
2023/06/02 02:12:57;;;;;;;15.77;5.53;;;10.50;99.90;;;;;;4986126;28;20550;-64
2023/06/02 02:15:27;;;;;;;10.20;4.93;;;10.50;99.90;;;;;;4983912;28;21185;-64
2023/06/02 02:17:57;;;;;;;17.60;6.00;;;10.50;99.90;;;;;;4983673;28;20487;-62
2023/06/02 02:20:27;;;;;;;13.67;5.63;;;10.50;99.90;;;;;;4988806;28;20483;-64
2023/06/02 02:22:55;;;;;;;15.90;5.47;;;10.50;99.90;;;;;;4981975;28;20579;-64
2023/06/02 02:25:23;;;;;;;11.70;4.93;;;10.50;99.90;;;;;;4984429;28;20477;-64
2023/06/02 02:27:51;;;;;;;17.53;6.60;;;10.50;99.90;;;;;;4984010;28;20501;-64
2023/06/02 02:30:19;;;;;;;12.40;5.10;;;10.50;99.90;;;;;;4990127;28;20634;-64
2023/06/02 02:32:51;;;;;;;12.57;5.47;;;10.40;99.90;;;;;;4989973;28;20492;-62
2023/06/02 02:35:19;;;;;;;17.70;6.27;;;10.40;99.90;;;;;;4976759;28;20468;-64
2023/06/02 02:37:50;;;;;;;15.87;6.50;;;10.40;99.90;;;;;;4987181;28;20476;-63
2023/06/02 02:40:18;;;;;;;12.90;5.67;;;10.30;99.90;;;;;;4985202;28;20480;-63
2023/06/02 02:42:46;;;;;;;12.53;5.27;;;10.30;99.90;;;;;;4988258;28;20618;-64
2023/06/02 02:45:15;;;;;;;11.23;4.70;;;10.30;99.90;;;;;;4987658;28;20476;-64
2023/06/02 02:47:42;;;;;;;13.57;4.93;;;10.30;99.90;;;;;;4988612;28;21037;-64
2023/06/02 02:50:12;;;;;;;15.17;5.70;;;10.30;99.90;;;;;;4988558;28;20500;-63
2023/06/02 02:52:40;;;;;;;11.20;6.07;;;10.30;99.90;;;;;;4988356;28;20493;-64
2023/06/02 02:55:08;;;;;;;16.40;5.30;;;10.20;99.90;;;;;;4991400;28;21275;-64
2023/06/02 02:57:37;;;;;;;11.07;4.77;;;10.20;99.90;;;;;;4993924;28;20479;-62
2023/06/02 03:00:07;;;;;;;11.67;5.03;;;10.20;99.90;;;;;;4987119;28;20476;-63
2023/06/02 03:02:35;;;;;;;14.10;5.17;;;10.20;99.90;;;;;;4980507;28;20489;-64
2023/06/02 03:05:05;;;;;;;10.20;4.77;;;10.20;99.90;;;;;;4985209;28;20476;-63
2023/06/02 03:07:35;;;;;;;11.90;5.60;;;10.20;99.90;;;;;;4986640;28;20491;-64
2023/06/02 03:10:05;;;;;;;11.73;5.23;;;10.10;99.90;;;;;;4986207;28;20534;-64
2023/06/02 03:12:33;;;;;;;15.53;6.20;;;10.10;99.90;;;;;;4983306;28;20505;-64
2023/06/02 03:15:02;;;;;;;12.00;5.43;;;10.10;99.90;;;;;;4990093;28;20472;-64
2023/06/02 03:17:30;;;;;;;14.17;5.50;;;10.20;99.90;;;;;;4985215;28;20572;-62
2023/06/02 03:19:59;;;;;;;15.13;5.40;;;10.10;99.90;;;;;;4991348;28;20670;-62
2023/06/02 03:22:28;;;;;;;11.87;5.10;;;10.10;99.90;;;;;;4985031;28;20578;-62
2023/06/02 03:24:58;;;;;;;12.53;5.67;;;10.10;99.90;;;;;;4987439;28;20476;-63
2023/06/02 03:27:27;;;;;;;12.30;5.27;;;10.10;99.90;;;;;;4987013;28;20496;-62
2023/06/02 03:29:55;;;;;;;13.40;5.93;;;10.10;99.90;;;;;;4986403;28;20525;-64
2023/06/02 03:32:23;;;;;;;11.80;5.30;;;10.20;99.90;;;;;;4990887;28;21984;-64
2023/06/02 03:34:51;;;;;;;11.07;5.00;;;10.20;99.90;;;;;;4992838;28;21780;-62
2023/06/02 03:37:19;;;;;;;15.37;5.37;;;10.20;99.90;;;;;;4991414;28;20472;-64
2023/06/02 03:39:47;;;;;;;15.77;5.87;;;10.20;99.90;;;;;;4994534;28;20971;-63
2023/06/02 03:42:16;;;;;;;13.13;5.97;;;10.10;99.90;;;;;;4987065;28;20854;-62
2023/06/02 03:44:45;;;;;;;12.10;4.73;;;10.10;99.90;;;;;;4996584;28;20472;-64
2023/06/02 03:47:13;;;;;;;15.73;5.43;;;10.10;99.90;;;;;;4990493;28;20479;-63
2023/06/02 03:49:41;;;;;;;11.13;4.77;;;10.10;99.90;;;;;;4991266;28;20475;-64
2023/06/02 03:52:08;;;;;;;16.20;5.50;;;10.10;99.90;;;;;;4993441;28;20886;-63
2023/06/02 03:54:36;;;;;;;15.60;5.13;;;10.20;99.90;;;;;;4992432;28;20519;-63
2023/06/02 03:57:05;;;;;;;9.73;4.50;;;10.20;99.90;;;;;;4993076;28;20475;-63
2023/06/02 03:59:34;;;;;;;12.33;5.00;;;10.30;99.90;;;;;;4991594;28;20589;-64
2023/06/02 04:02:02;;;;;;;14.40;5.80;;;10.30;99.90;;;;;;4990913;28;20503;-63
2023/06/02 04:04:31;;;;;;;10.50;4.90;;;10.30;99.90;;;;;;4996598;28;20491;-64
2023/06/02 04:07:02;;;;;;;13.80;4.63;;;10.30;99.90;;;;;;4992456;28;20500;-64
2023/06/02 04:09:30;;;;;;;7.60;5.07;;;10.30;99.90;;;;;;4992317;28;20468;-64
2023/06/02 04:11:58;;;;;;;11.53;4.60;;;10.30;99.90;;;;;;4988138;28;21024;-64
2023/06/02 04:14:27;;;;;;;9.80;5.60;;;10.30;99.90;;;;;;4998152;28;20478;-64
2023/06/02 04:16:56;;;;;;;10.57;5.03;;;10.30;99.90;;;;;;4993039;28;20559;-64
2023/06/02 04:19:25;;;;;;;10.63;5.63;;;10.40;99.90;;;;;;4991037;28;20508;-64
2023/06/02 04:21:53;;;;;;;11.97;5.10;;;10.40;99.90;;;;;;4992579;28;20584;-66
2023/06/02 04:24:21;;;;;;;10.33;4.80;;;10.40;99.90;;;;;;4980232;28;21151;-64
2023/06/02 04:26:49;;;;;;;10.60;4.30;;;10.40;99.90;;;;;;4997675;28;20916;-62
2023/06/02 04:29:17;;;;;;;10.67;4.30;;;10.50;99.90;;;;;;4991143;28;20796;-63
2023/06/02 04:31:47;;;;;;;8.43;4.00;;;10.50;99.90;;;;;;4999384;28;20548;-63
2023/06/02 04:34:17;;;;;;;11.60;4.50;;;10.60;99.90;;;;;;4993067;28;20566;-62
2023/06/02 04:36:45;;;;;;;12.43;4.57;;;10.60;99.90;;;;;;4988127;28;20501;-63
2023/06/02 04:39:13;;;;;;;12.53;4.30;;;10.60;99.90;;;;;;4986705;28;20483;-62
2023/06/02 04:41:42;;;;;;;9.57;4.87;;;10.60;99.90;;;;;;4988854;28;20496;-64
2023/06/02 04:44:11;;;;;;;10.13;3.97;;;10.70;99.90;;;;;;4987933;28;20477;-63
2023/06/02 04:46:39;;;;;;;10.13;5.00;;;10.70;99.90;;;;;;4983750;28;20483;-62
2023/06/02 04:49:09;;;;;;;9.67;4.20;;;10.80;99.90;;;;;;4986941;28;20493;-64
2023/06/02 04:51:39;;;;;;;8.10;4.93;;;10.80;99.90;;;;;;4988453;28;22097;-63
2023/06/02 04:54:07;;;;;;;10.00;4.17;;;10.80;99.90;;;;;;4992576;28;20468;-63
2023/06/02 04:56:36;;;;;;;7.90;4.70;;;10.80;99.90;;;;;;4990214;28;20476;-63
2023/06/02 04:59:04;;;;;;;11.33;4.60;;;10.80;99.90;;;;;;4999577;28;20470;-65
2023/06/02 05:01:33;;;;;;;8.40;4.63;;;10.80;99.90;;;;;;4993629;28;20507;-65
2023/06/02 05:04:01;;;;;;;9.43;4.77;;;10.90;99.90;;;;;;4985888;28;20472;-64
2023/06/02 05:06:30;;;;;;;8.10;4.10;;;11.00;99.90;;;;;;4982607;28;20479;-64
2023/06/02 05:09:00;;;;;;;6.37;4.10;;;11.10;99.90;;;;;;4986084;28;20496;-64
2023/06/02 05:11:28;;;;;;;9.30;4.10;;;11.10;99.90;;;;;;4985124;28;20485;-64
2023/06/02 05:13:56;;;;;;;8.03;4.50;;;11.20;99.90;;;;;;5000157;28;20477;-63
2023/06/02 05:16:24;;;;;;;8.33;4.53;;;11.20;99.90;;;;;;5008356;28;20482;-64
2023/06/02 05:18:52;;;;;;;9.03;4.60;;;11.20;99.90;;;;;;4999922;28;20558;-63
2023/06/02 05:21:20;;;;;;;9.27;4.57;;;11.30;99.90;;;;;;4984938;28;20480;-63
2023/06/02 05:23:48;;;;;;;6.57;4.30;;;11.30;99.90;;;;;;4987707;28;21306;-63
2023/06/02 05:26:17;;;;;;;9.17;4.47;;;11.30;99.90;;;;;;4990070;28;20477;-64
2023/06/02 05:28:45;;;;;;;7.67;4.27;;;11.30;99.90;;;;;;4992044;28;20587;-62
2023/06/02 05:31:14;;;;;;;9.77;4.20;;;11.30;99.90;;;;;;4990245;28;20492;-63
2023/06/02 05:33:42;;;;;;;9.80;5.10;;;11.50;99.90;;;;;;4990663;28;20566;-63
2023/06/02 05:36:10;;;;;;;7.73;3.90;;;11.50;99.90;;;;;;4994332;28;20467;-63
2023/06/02 05:38:42;;;;;;;10.40;4.80;;;11.60;99.90;;;;;;4992770;28;20472;-63
2023/06/02 05:41:10;;;;;;;6.80;4.33;;;11.70;99.90;;;;;;4998698;28;20486;-63
2023/06/02 05:43:39;;;;;;;7.67;4.77;;;11.80;99.90;;;;;;4996198;28;20464;-64
2023/06/02 05:46:07;;;;;;;10.43;4.57;;;11.90;99.90;;;;;;4992939;28;20476;-64
2023/06/02 05:48:35;;;;;;;8.83;4.50;;;12.00;99.90;;;;;;4995817;28;20612;-64
2023/06/02 05:51:04;;;;;;;7.50;4.20;;;12.10;99.90;;;;;;4993197;28;20502;-63
2023/06/02 05:53:31;;;;;;;7.23;3.70;;;12.10;99.90;;;;;;4995401;28;21089;-64
2023/06/02 05:55:59;;;;;;;8.00;4.53;;;12.10;99.90;;;;;;4998708;28;20997;-64
2023/06/02 05:58:28;;;;;;;11.80;4.97;;;12.30;99.90;;;;;;4994401;28;20468;-64
2023/06/02 06:00:57;;;;;;;9.57;4.40;;;12.30;99.90;;;;;;4993585;28;20710;-64
2023/06/02 06:03:25;;;;;;;8.90;5.00;;;12.40;99.90;;;;;;4996038;28;20572;-64
2023/06/02 06:05:53;;;;;;;7.83;4.97;;;12.40;99.90;;;;;;5000724;28;20477;-64
2023/06/02 06:08:21;;;;;;;12.73;5.10;;;12.40;99.90;;;;;;4998812;28;20502;-64
2023/06/02 06:10:50;;;;;;;9.53;4.97;;;12.50;99.90;;;;;;4998812;28;20567;-64
2023/06/02 06:13:18;;;;;;;6.50;4.37;;;12.50;99.90;;;;;;4994652;28;20583;-63
2023/06/02 06:15:47;;;;;;;6.63;5.30;;;12.60;99.90;;;;;;4992914;28;20505;-64
2023/06/02 06:18:19;;;;;;;9.63;5.47;;;12.70;99.90;;;;;;4993333;28;20909;-64
2023/06/02 06:20:47;;;;;;;8.00;4.90;;;12.80;99.90;;;;;;4990283;28;20472;-64
2023/06/02 06:23:15;;;;;;;9.23;4.87;;;12.90;99.90;;;;;;4988432;28;20496;-63
2023/06/02 06:25:43;;;;;;;9.97;4.70;;;12.90;99.90;;;;;;4993654;28;20480;-64
2023/06/02 06:28:11;;;;;;;9.90;4.90;;;13.00;99.90;;;;;;4993079;28;20541;-64
2023/06/02 06:30:40;;;;;;;8.60;4.90;;;13.00;99.90;;;;;;4999468;28;21125;-64
2023/06/02 06:33:08;;;;;;;9.47;5.40;;;13.00;99.90;;;;;;4994872;28;20912;-64
2023/06/02 06:35:38;;;;;;;7.27;5.27;;;13.10;99.90;;;;;;4997289;28;20480;-64
2023/06/02 06:38:05;;;;;;;8.10;5.57;;;13.10;99.90;;;;;;4992960;28;20474;-63
2023/06/02 06:40:35;;;;;;;8.13;4.57;;;13.20;99.90;;;;;;4995360;28;20479;-63
2023/06/02 06:43:06;;;;;;;7.00;5.10;;;13.30;99.90;;;;;;4992029;28;20508;-64
2023/06/02 06:45:51;;;;;;;8.00;5.50;;;13.30;99.90;;;;;;4990093;28;20514;-64
2023/06/02 06:48:19;;;;;;;8.03;4.90;;;13.40;99.90;;;;;;4992753;28;20473;-64
2023/06/02 06:50:49;;;;;;;6.83;4.87;;;13.50;99.90;;;;;;4991451;28;20503;-64
2023/06/02 06:53:19;;;;;;;8.07;5.40;;;13.60;99.90;;;;;;4990710;28;20503;-64
2023/06/02 06:55:48;;;;;;;6.97;5.00;;;13.70;99.90;;;;;;4990907;28;21143;-64
2023/06/02 06:58:16;;;;;;;8.20;4.90;;;13.80;99.90;;;;;;4993680;28;20468;-64
2023/06/02 07:00:44;;;;;;;8.67;5.07;;;13.90;99.90;;;;;;4992477;28;21055;-64
2023/06/02 07:03:14;;;;;;;6.33;5.00;;;13.90;99.90;;;;;;4990844;28;20508;-63
2023/06/02 07:05:44;;;;;;;6.60;4.80;;;14.00;99.90;;;;;;4991655;28;21076;-63
2023/06/02 07:08:13;;;;;;;8.23;5.13;;;14.10;99.90;;;;;;4991479;28;20475;-63
2023/06/02 07:10:41;;;;;;;7.60;5.07;;;14.20;99.90;;;;;;4986203;28;20775;-63
2023/06/02 07:13:09;;;;;;;9.53;6.20;;;14.30;99.90;;;;;;4990950;28;20480;-64
2023/06/02 07:15:37;;;;;;;9.00;5.10;;;14.40;99.90;;;;;;4991453;28;20468;-64
2023/06/02 07:18:05;;;;;;;7.80;5.10;;;14.50;99.90;;;;;;4993815;28;20468;-64
2023/06/02 07:20:33;;;;;;;6.20;5.10;;;14.60;99.90;;;;;;4997545;28;20464;-64
2023/06/02 07:23:01;;;;;;;7.17;5.20;;;14.70;99.90;;;;;;4995469;28;20556;-64
2023/06/02 07:25:31;;;;;;;5.20;4.60;;;14.70;99.90;;;;;;5005232;28;20496;-64
2023/06/02 07:27:59;;;;;;;7.80;4.63;;;14.80;99.90;;;;;;5006801;28;20473;-64
2023/06/02 07:30:27;;;;;;;8.53;4.97;;;14.80;99.90;;;;;;5002786;28;21016;-64
2023/06/02 07:32:55;;;;;;;8.47;5.33;;;14.90;99.90;;;;;;4995026;28;20578;-64
2023/06/02 07:35:23;;;;;;;8.60;5.17;;;14.90;99.90;;;;;;4993266;28;20538;-64
2023/06/02 07:37:52;;;;;;;6.10;5.50;;;14.80;99.90;;;;;;4996793;28;20614;-63
2023/06/02 07:40:20;;;;;;;12.50;6.60;;;14.80;99.90;;;;;;4997770;28;20546;-64
2023/06/02 07:42:50;;;;;;;6.87;5.37;;;14.90;99.90;;;;;;4988550;28;20502;-64
2023/06/02 07:45:18;;;;;;;9.80;5.70;;;15.00;99.90;;;;;;5000306;28;20480;-62
2023/06/02 07:47:46;;;;;;;10.57;6.33;;;15.00;99.90;;;;;;4994315;28;20477;-64
2023/06/02 07:50:14;;;;;;;6.87;5.77;;;15.10;99.90;;;;;;4998123;28;20499;-64
2023/06/02 07:52:43;;;;;;;8.47;6.00;;;15.20;99.90;;;;;;5000284;28;20595;-64
2023/06/02 07:55:12;;;;;;;8.50;6.40;;;15.40;99.90;;;;;;5000017;28;20482;-64
2023/06/02 07:57:40;;;;;;;6.53;5.87;;;15.50;99.90;;;;;;4999221;28;21175;-63
2023/06/02 08:00:14;;;;;;;8.23;5.47;;;15.60;99.90;;;;;;4999512;28;20956;-63
2023/06/02 08:02:43;;;;;;;7.37;5.80;;;15.60;99.90;;;;;;5002136;28;20496;-65
2023/06/02 08:05:11;;;;;;;6.73;5.17;;;15.60;99.90;;;;;;4998727;28;20977;-64
2023/06/02 08:07:40;;;;;;;7.17;5.90;;;15.60;99.90;;;;;;4995972;28;20522;-64
2023/06/02 08:10:09;;;;;;;10.20;5.83;;;15.60;99.90;;;;;;5000710;28;20556;-63
2023/06/02 08:12:38;;;;;;;8.20;5.93;;;15.60;99.90;;;;;;4998140;28;20528;-64
2023/06/02 08:15:07;;;;;;;5.70;5.17;;;15.60;99.90;;;;;;5000174;28;20495;-64
2023/06/02 08:17:36;;;;;;;7.10;5.57;;;15.60;99.90;;;;;;4997515;28;20493;-64
2023/06/02 08:20:06;;;;;;;7.60;5.77;;;15.60;99.90;;;;;;5000464;28;20468;-63
2023/06/02 08:22:36;;;;;;;8.33;5.50;;;15.70;99.90;;;;;;5001031;28;20535;-64
2023/06/02 08:25:05;;;;;;;7.50;5.27;;;15.60;99.90;;;;;;5003292;28;20484;-64
2023/06/02 08:27:33;;;;;;;8.60;5.27;;;15.60;99.90;;;;;;5003113;28;20552;-64
2023/06/02 08:30:01;;;;;;;7.17;5.33;;;15.60;99.90;;;;;;4999059;28;20520;-64
2023/06/02 08:32:30;;;;;;;8.73;5.37;;;15.60;99.90;;;;;;4998725;28;20500;-65
2023/06/02 08:35:01;;;;;;;6.07;5.30;;;15.60;99.90;;;;;;5000852;28;20484;-64
2023/06/02 08:37:31;;;;;;;6.57;4.97;;;15.60;99.90;;;;;;5023199;28;20457;-62
2023/06/02 08:40:00;;;;;;;9.03;5.20;;;15.60;99.90;;;;;;5023404;28;20464;-66
2023/06/02 08:42:28;;;;;;;7.90;5.90;;;15.70;99.90;;;;;;5020077;28;20508;-63
2023/06/02 08:44:55;;;;;;;5.50;4.67;;;15.70;99.90;;;;;;5024686;28;20460;-63
2023/06/02 08:47:25;;;;;;;6.43;4.37;;;15.60;99.90;;;;;;5009821;28;21001;-64
2023/06/02 08:49:53;;;;;;;6.43;4.90;;;15.60;99.90;;;;;;5000957;28;20910;-64
2023/06/02 08:52:25;;;;;;;5.23;4.47;;;15.70;99.90;;;;;;4997890;28;20550;-64
2023/06/02 08:54:56;;;;;;;6.23;4.07;;;15.80;99.90;;;;;;5000308;28;20476;-63
2023/06/02 08:57:25;;;;;;;4.23;3.33;;;15.90;99.90;;;;;;4995861;28;20499;-64
2023/06/02 08:59:53;;;;;;;3.70;3.30;;;15.90;99.90;;;;;;4995865;28;20504;-63
2023/06/02 09:02:21;;;;;;;3.80;2.73;;;15.80;99.90;;;;;;4997538;28;20499;-64
2023/06/02 09:04:51;;;;;;;4.87;3.60;;;15.80;99.90;;;;;;4996097;28;20958;-64
2023/06/02 09:07:20;;;;;;;4.47;3.63;;;15.80;99.90;;;;;;4999476;28;20464;-64
2023/06/02 09:09:53;;;;;;;4.23;2.90;;;15.80;99.90;;;;;;4996105;28;20524;-65
2023/06/02 09:12:24;;;;;;;4.33;3.63;;;15.90;99.90;;;;;;4997372;28;20486;-63
2023/06/02 09:15:08;;;;;;;4.23;3.20;;;15.90;99.90;;;;;;4996000;28;20535;-64
2023/06/02 09:17:37;;;;;;;4.93;3.40;;;15.90;99.90;;;;;;4989147;28;20540;-64
2023/06/02 09:20:10;;;;;;;4.70;3.50;;;16.00;99.90;;;;;;4996844;28;20474;-64
2023/06/02 09:22:53;;;;;;;4.27;3.37;;;15.90;99.90;;;;;;5000195;28;20528;-64
2023/06/02 09:25:26;;;;;;;3.33;2.77;;;15.90;99.90;;;;;;5001160;28;20952;-64
2023/06/02 09:27:55;;;;;;;7.23;3.40;;;15.90;99.90;;;;;;4998813;28;21147;-64
2023/06/02 09:30:23;;;;;;;6.00;3.30;;;15.90;99.90;;;;;;4999669;28;20495;-64
2023/06/02 09:32:56;;;;;;;4.07;3.37;;;15.90;99.90;;;;;;4997225;28;20591;-64
2023/06/02 09:35:40;;;;;;;4.57;3.47;;;15.90;99.90;;;;;;5000461;28;20957;-63
2023/06/02 09:38:10;;;;;;;4.60;3.20;;;16.00;99.90;;;;;;4997949;28;20469;-64
2023/06/02 09:40:41;;;;;;;3.50;3.10;;;16.00;99.90;;;;;;4998976;28;20480;-64
2023/06/02 09:43:11;;;;;;;3.30;2.80;;;16.00;99.90;;;;;;4999655;28;20596;-64
2023/06/02 09:46:01;;;;;;;5.20;3.03;;;16.00;99.90;;;;;;4999543;28;20547;-63
2023/06/02 09:48:29;;;;;;;4.23;2.73;;;16.00;99.90;;;;;;4996410;28;20480;-63
2023/06/02 09:50:58;;;;;;;3.90;2.60;;;16.00;99.90;;;;;;4993440;28;20481;-63
2023/06/02 09:53:26;;;;;;;2.63;2.40;;;16.10;99.90;;;;;;4997042;28;20635;-67
2023/06/02 09:55:55;;;;;;;3.10;2.80;;;16.10;99.90;;;;;;4993897;28;20499;-64
2023/06/02 09:58:23;;;;;;;3.40;2.70;;;16.20;99.90;;;;;;4994400;28;20475;-64
2023/06/02 10:00:51;;;;;;;2.50;2.23;;;16.30;99.90;;;;;;4990038;28;20481;-64
2023/06/02 10:03:20;;;;;;;3.40;2.33;;;16.40;99.90;;;;;;4997622;28;20627;-63
2023/06/02 10:06:01;;;;;;;3.80;2.50;;;16.60;99.90;;;;;;4995017;28;20567;-63
2023/06/02 10:08:36;;;;;;;2.07;1.87;;;16.70;99.90;;;;;;4996567;28;20470;-64
2023/06/02 10:11:13;;;;;;;2.70;2.07;;;16.80;99.90;;;;;;4996970;28;20511;-63
2023/06/02 10:14:07;;;;;;;2.70;2.10;;;16.90;99.90;;;;;;4997469;28;21238;-64
2023/06/02 10:16:54;;;;;;;4.63;1.90;;;16.90;99.90;;;;;;4992028;28;20505;-64
2023/06/02 10:20:10;;;;;;;2.77;2.10;;;17.00;99.90;;;;;;4997300;28;20504;-65
2023/06/02 10:22:51;;;;;;;2.53;2.33;;;17.10;99.90;;;;;;4999233;28;20538;-63
2023/06/02 10:25:31;;;;;;;5.10;2.40;;;17.10;99.90;;;;;;4999481;28;20526;-62
2023/06/02 10:28:02;;;;;;;2.10;1.90;;;17.30;99.90;;;;;;4997981;28;20586;-64
2023/06/02 10:30:30;;;;;;;3.90;2.00;;;17.40;99.90;;;;;;4999019;28;20867;-63
2023/06/02 10:32:58;;;;;;;2.60;2.40;;;17.50;99.90;;;;;;4998336;28;20638;-64
2023/06/02 10:35:56;;;;;;;2.80;1.90;;;17.70;99.90;;;;;;4999192;28;20491;-64
2023/06/02 10:38:25;;;;;;;3.20;2.00;;;17.80;99.90;;;;;;4994620;28;20500;-65
2023/06/02 10:40:56;;;;;;;2.37;2.13;;;18.00;99.90;;;;;;5001215;28;20477;-64
2023/06/02 10:43:26;;;;;;;2.97;1.90;;;18.30;99.90;;;;;;4999738;28;20520;-65
2023/06/02 10:45:55;;;;;;;2.30;2.10;;;18.40;99.90;;;;;;4995529;28;20619;-64
2023/06/02 10:48:41;;;;;;;1.83;1.73;;;18.40;99.90;;;;;;4997056;28;20480;-64
2023/06/02 10:51:12;;;;;;;2.90;1.70;;;18.60;99.90;;;;;;4998009;28;20483;-64
2023/06/02 10:54:14;;;;;;;2.07;1.63;;;18.70;99.90;;;;;;4992716;28;20492;-63
2023/06/02 10:56:46;;;;;;;2.33;1.70;;;18.80;99.90;;;;;;4995624;28;20481;-65
2023/06/02 10:59:36;;;;;;;2.83;1.77;;;18.90;99.90;;;;;;4988817;28;20631;-65
2023/06/02 11:02:06;;;;;;;1.87;1.77;;;18.90;99.90;;;;;;4992460;28;20998;-64
2023/06/02 11:04:34;;;;;;;1.43;1.33;;;19.00;99.90;;;;;;4991307;28;20479;-63
2023/06/02 11:07:21;;;;;;;1.83;1.47;;;19.10;99.90;;;;;;4990074;28;20479;-64
2023/06/02 11:09:52;;;;;;;2.50;1.57;;;19.30;99.90;;;;;;4997965;28;20559;-65
2023/06/02 11:12:21;;;;;;;1.67;1.57;;;19.50;99.90;;;;;;4997078;28;20854;-65
2023/06/02 11:15:16;;;;;;;3.07;1.80;;;19.60;99.90;;;;;;4997980;28;20515;-65
2023/06/02 11:17:47;;;;;;;3.63;1.80;;;19.80;99.90;;;;;;4997393;28;20561;-64
2023/06/02 11:20:17;;;;;;;1.37;1.17;;;19.90;99.90;;;;;;4995365;28;20552;-64
2023/06/02 11:22:46;;;;;;;1.60;1.40;;;20.00;99.90;;;;;;4984768;28;20543;-64
2023/06/02 11:25:15;;;;;;;3.10;1.90;;;19.90;99.90;;;;;;4988143;28;20474;-65
2023/06/02 11:27:46;;;;;;;2.60;1.43;;;19.80;99.90;;;;;;4979392;28;20473;-65
2023/06/02 11:30:17;;;;;;;2.30;1.60;;;19.80;99.90;;;;;;5002556;28;21182;-64
2023/06/02 11:32:48;;;;;;;3.50;1.73;;;19.70;99.90;;;;;;4995218;28;20496;-65
2023/06/02 11:35:19;;;;;;;1.90;1.57;;;19.80;99.90;;;;;;4992754;28;20468;-65
2023/06/02 11:38:02;;;;;;;1.83;1.73;;;19.80;99.90;;;;;;4991096;28;21176;-65
2023/06/02 11:40:31;;;;;;;2.77;1.73;;;20.00;99.90;;;;;;4988811;28;20502;-65
2023/06/02 11:42:59;;;;;;;2.63;1.80;;;20.30;99.90;;;;;;4992446;28;20489;-62
2023/06/02 11:45:30;;;;;;;2.67;1.83;;;20.50;99.90;;;;;;4991281;28;22167;-64
2023/06/02 11:48:00;;;;;;;2.03;1.60;;;20.60;99.90;;;;;;4994709;28;20559;-64
2023/06/02 11:50:29;;;;;;;2.07;1.70;;;20.70;99.90;;;;;;4992126;28;20538;-63
2023/06/02 11:52:57;;;;;;;1.57;1.47;;;20.90;99.90;;;;;;4994124;28;20606;-65
2023/06/02 11:55:30;;;;;;;2.73;1.93;;;21.10;99.90;;;;;;4990234;28;20531;-64
2023/06/02 11:58:18;;;;;;;8.30;1.80;;;21.10;99.90;;;;;;4993832;28;20963;-65
2023/06/02 12:00:47;;;;;;;2.80;1.63;;;21.10;99.90;;;;;;4991169;28;20522;-65
2023/06/02 12:03:15;;;;;;;4.63;1.70;;;21.20;99.90;;;;;;4998754;28;21091;-64
2023/06/02 12:05:46;;;;;;;3.50;2.03;;;21.20;99.90;;;;;;4995977;28;20535;-64
2023/06/02 12:08:20;;;;;;;2.77;1.63;;;21.20;99.90;;;;;;5001004;28;20503;-64
2023/06/02 12:10:48;;;;;;;3.20;1.47;;;21.20;99.30;;;;;;4999451;28;21049;-65
2023/06/02 12:13:26;;;;;;;2.13;1.93;;;21.10;99.90;;;;;;5000171;28;21073;-65
2023/06/02 12:16:16;;;;;;;2.60;1.80;;;21.20;99.90;;;;;;4992580;28;20559;-65
2023/06/02 12:18:46;;;;;;;2.73;1.50;;;21.30;99.90;;;;;;4995770;28;20469;-65
2023/06/02 12:21:26;;;;;;;2.90;1.60;;;21.50;99.90;;;;;;4994855;28;21049;-65
2023/06/02 12:23:55;;;;;;;4.50;1.90;;;21.70;99.90;;;;;;4992311;28;21060;-65
2023/06/02 12:26:24;;;;;;;3.00;1.50;;;21.80;99.90;;;;;;4996934;28;20567;-65
2023/06/02 12:28:52;;;;;;;1.90;1.20;;;21.90;97.20;;;;;;4999728;28;20538;-65
2023/06/02 12:31:22;;;;;;;3.83;1.33;;;22.00;90.10;;;;;;4994396;28;20516;-65
2023/06/02 12:33:50;;;;;;;2.13;1.47;;;21.90;84.70;;;;;;4986534;28;20541;-64
2023/06/02 12:36:17;;;;;;;2.43;1.43;;;21.80;93.80;;;;;;4998452;28;21056;-65
2023/06/02 12:38:45;;;;;;;2.93;1.33;;;21.90;90.20;;;;;;4990612;28;20511;-63
2023/06/02 12:41:13;;;;;;;1.70;1.30;;;22.00;93.80;;;;;;4993301;28;21083;-65
2023/06/02 12:43:42;;;;;;;3.00;1.40;;;22.20;88.40;;;;;;4988450;28;20899;-64
2023/06/02 12:46:12;;;;;;;2.87;1.60;;;22.30;76.70;;;;;;4995382;28;20473;-65
2023/06/02 12:48:42;;;;;;;1.67;1.30;;;22.30;76.70;;;;;;4997763;28;20460;-65
2023/06/02 12:51:11;;;;;;;1.47;1.37;;;22.30;70.10;;;;;;4980280;28;20500;-66
2023/06/02 12:53:39;;;;;;;1.47;1.30;;;22.20;75.60;;;;;;4994145;28;21852;-65
2023/06/02 12:56:14;;;;;;;3.43;1.50;;;22.20;71.90;;;;;;4985277;28;20563;-64
2023/06/02 12:58:43;;;;;;;2.20;1.40;;;22.10;73.30;;;;;;4993192;28;20467;-65